Time;durP1;ratioP1;P1;durP2;ratioP2;P2;SDS_P1;SDS_P2;PMS_P1;PMS_P2;Temp;Humidity;BMP_temperature;BMP_pressure;BME280_temperature;BME280_humidity;BME280_pressure;Samples;Min_cycle;Max_cycle;Signal;HPM_P1;HPM_P2
2021/11/19 00:01:55;;;;;;;20.17;13.75;;;;;;;-140.05;100.00;61859.38;4875252;29;20640;-61
2021/11/19 00:04:24;;;;;;;23.50;15.63;;;;;;;-140.05;100.00;61859.38;4864544;29;20690;-62
2021/11/19 00:06:52;;;;;;;23.13;15.52;;;;;;;-140.05;100.00;61859.38;4866453;29;20685;-62
2021/11/19 00:09:19;;;;;;;25.33;16.20;;;;;;;-140.05;100.00;61859.38;4870149;29;20237;-61
2021/11/19 00:11:48;;;;;;;22.05;15.50;;;;;;;-140.05;100.00;61859.38;4870907;29;20570;-61
2021/11/19 00:14:17;;;;;;;23.58;15.13;;;;;;;-140.05;100.00;61859.38;4867750;29;20683;-63
2021/11/19 00:16:49;;;;;;;25.25;15.68;;;;;;;-140.05;100.00;61859.38;4873498;29;20575;-62
2021/11/19 00:19:17;;;;;;;26.33;17.13;;;;;;;-140.05;100.00;61859.38;4876002;29;20223;-62
2021/11/19 00:21:44;;;;;;;23.27;15.18;;;;;;;-140.05;100.00;61859.38;4878442;29;20277;-62
2021/11/19 00:24:12;;;;;;;24.42;16.75;;;;;;;-140.05;100.00;61859.38;4878876;29;20274;-62
2021/11/19 00:26:40;;;;;;;25.67;17.30;;;;;;;-140.05;100.00;61859.38;4877999;29;20203;-62
2021/11/19 00:29:09;;;;;;;26.98;16.52;;;;;;;-140.05;100.00;61859.38;4878920;29;20285;-62
2021/11/19 00:31:36;;;;;;;25.35;15.65;;;;;;;-140.05;100.00;61859.38;4878676;29;20222;-61
2021/11/19 00:34:05;;;;;;;22.60;15.63;;;;;;;-140.05;100.00;61859.38;4875094;29;20206;-62
2021/11/19 00:36:34;;;;;;;24.65;15.95;;;;;;;-140.05;100.00;61859.38;4876930;29;20245;-61
2021/11/19 00:39:06;;;;;;;24.23;16.17;;;;;;;-140.05;100.00;61859.38;4878190;29;20325;-63
2021/11/19 00:41:35;;;;;;;23.42;16.30;;;;;;;-140.05;100.00;61859.38;4878096;29;20203;-62
2021/11/19 00:44:03;;;;;;;24.35;16.30;;;;;;;-140.05;100.00;61859.38;4878316;29;20210;-62
2021/11/19 00:46:32;;;;;;;23.02;16.05;;;;;;;-140.05;100.00;61859.38;4878829;29;20253;-64
2021/11/19 00:49:00;;;;;;;22.40;15.27;;;;;;;-140.05;100.00;61859.38;4874758;29;20234;-65
2021/11/19 00:51:33;;;;;;;24.42;16.95;;;;;;;-140.05;100.00;61859.38;4878786;29;20500;-62
2021/11/19 00:54:02;;;;;;;23.17;15.57;;;;;;;-140.05;100.00;61859.38;4878014;29;20207;-61
2021/11/19 00:56:39;;;;;;;26.05;16.80;;;;;;;-140.05;100.00;61859.38;4878530;29;20755;-62
2021/11/19 00:59:09;;;;;;;25.17;14.87;;;;;;;-140.05;100.00;61859.38;4893375;29;20225;-61
2021/11/19 01:01:41;;;;;;;21.17;15.38;;;;;;;-140.05;100.00;61859.38;4877845;29;20490;-62
2021/11/19 01:04:10;;;;;;;23.38;16.30;;;;;;;-140.05;100.00;61859.38;4893232;29;20218;-61
2021/11/19 01:06:38;;;;;;;23.10;16.20;;;;;;;-140.05;100.00;61859.38;4893028;29;20682;-60
2021/11/19 01:09:09;;;;;;;24.10;15.85;;;;;;;-140.05;100.00;61859.38;4893652;29;20857;-63
2021/11/19 01:11:37;;;;;;;25.27;16.58;;;;;;;-140.05;100.00;61859.38;4896723;29;20214;-62
2021/11/19 01:14:17;;;;;;;23.45;16.35;;;;;;;-140.05;100.00;61859.38;4898410;29;20202;-61
2021/11/19 01:16:49;;;;;;;22.60;15.05;;;;;;;-140.05;100.00;61859.38;4867462;29;20734;-61
2021/11/19 01:19:27;;;;;;;21.95;14.85;;;;;;;-140.05;100.00;61859.38;4890257;29;20206;-61
2021/11/19 01:22:03;;;;;;;23.23;15.85;;;;;;;-140.05;100.00;61859.38;4891917;29;20638;-62
2021/11/19 01:24:31;;;;;;;26.55;16.95;;;;;;;-140.05;100.00;61859.38;4878118;29;20207;-62
2021/11/19 01:26:59;;;;;;;23.20;16.63;;;;;;;-140.05;100.00;61859.38;4891984;29;20206;-62
2021/11/19 01:29:26;;;;;;;23.13;15.75;;;;;;;-140.05;100.00;61859.38;4907736;29;20268;-61
2021/11/19 01:32:02;;;;;;;20.83;14.32;;;;;;;-140.05;100.00;61859.38;4891909;29;20210;-62
2021/11/19 01:34:48;;;;;;;22.88;15.73;;;;;;;-140.05;100.00;61859.38;4877836;29;20238;-63
2021/11/19 01:37:35;;;;;;;21.42;15.57;;;;;;;-140.05;100.00;61859.38;4877585;29;20205;-62
2021/11/19 01:40:14;;;;;;;20.05;14.02;;;;;;;-140.05;100.00;61859.38;4875571;29;20207;-62
2021/11/19 01:42:56;;;;;;;21.85;14.85;;;;;;;-140.05;100.00;61859.38;4879922;29;20210;-62
2021/11/19 01:45:34;;;;;;;20.25;14.30;;;;;;;-140.05;100.00;61859.38;4879814;29;20987;-61
2021/11/19 01:48:06;;;;;;;20.02;14.38;;;;;;;-140.05;100.00;61859.38;4866604;29;20226;-61
2021/11/19 01:50:42;;;;;;;21.45;14.93;;;;;;;-140.05;100.00;61859.38;4907796;29;20597;-61
2021/11/19 01:53:09;;;;;;;21.23;14.63;;;;;;;-140.05;100.00;61859.38;4876039;29;20225;-66
2021/11/19 01:56:13;;;;;;;20.23;14.15;;;;;;;-140.05;100.00;61859.38;4876102;29;20297;-64
2021/11/19 01:59:03;;;;;;;21.08;14.57;;;;;;;-140.05;100.00;61859.38;4872841;29;20279;-63
2021/11/19 02:01:47;;;;;;;20.92;12.90;;;;;;;-140.05;100.00;61859.38;4907514;29;20211;-62
2021/11/19 02:04:24;;;;;;;18.60;13.35;;;;;;;-140.05;100.00;61859.38;4891989;29;20219;-63
2021/11/19 02:07:00;;;;;;;19.90;14.35;;;;;;;-140.05;100.00;61859.38;4876569;29;20709;-62
2021/11/19 02:10:10;;;;;;;20.35;14.50;;;;;;;-140.05;100.00;61859.38;4864761;29;20222;-62
2021/11/19 02:12:54;;;;;;;19.23;13.55;;;;;;;-140.05;100.00;61859.38;4895594;29;20210;-63
2021/11/19 02:15:31;;;;;;;19.60;15.07;;;;;;;-140.05;100.00;61859.38;4882451;29;20206;-61
2021/11/19 02:18:05;;;;;;;20.40;13.45;;;;;;;-140.05;100.00;61859.38;4881610;29;20226;-63
2021/11/19 02:20:37;;;;;;;20.13;14.77;;;;;;;-140.05;100.00;61859.38;4870957;29;20305;-62
2021/11/19 02:23:21;;;;;;;19.75;13.73;;;;;;;-140.05;100.00;61859.38;4907045;29;20603;-62
2021/11/19 02:26:27;;;;;;;19.58;14.25;;;;;;;-140.05;100.00;61859.38;4867521;29;20297;-63
2021/11/19 02:28:55;;;;;;;16.40;12.52;;;;;;;-140.05;100.00;61859.38;4830934;29;20207;-62
2021/11/19 02:31:25;;;;;;;18.58;13.15;;;;;;;-140.05;100.00;61859.38;4871006;29;20794;-64
2021/11/19 02:33:56;;;;;;;17.40;12.43;;;;;;;-140.05;100.00;61859.38;4895036;29;20218;-62
2021/11/19 02:36:39;;;;;;;18.50;12.63;;;;;;;-140.05;100.00;61859.38;4879865;29;20261;-61
2021/11/19 02:39:14;;;;;;;17.30;11.95;;;;;;;-140.05;100.00;61859.38;4882035;29;20345;-62
2021/11/19 02:41:48;;;;;;;15.73;10.55;;;;;;;-140.05;100.00;61859.38;4863586;29;20208;-62
2021/11/19 02:44:19;;;;;;;17.73;11.98;;;;;;;-140.05;100.00;61859.38;4877492;29;20794;-61
2021/11/19 02:46:53;;;;;;;16.27;11.25;;;;;;;-140.05;100.00;61859.38;4865640;29;20989;-62
2021/11/19 02:49:22;;;;;;;16.13;12.10;;;;;;;-140.05;100.00;61859.38;4881669;29;20757;-61
2021/11/19 02:51:50;;;;;;;16.45;12.05;;;;;;;-140.05;100.00;61859.38;4890771;29;20238;-61
2021/11/19 02:54:27;;;;;;;15.82;11.88;;;;;;;-140.05;100.00;61859.38;4876971;29;20198;-62
2021/11/19 02:56:56;;;;;;;16.10;11.95;;;;;;;-140.05;100.00;61859.38;4890119;29;20245;-62
2021/11/19 02:59:24;;;;;;;17.02;12.38;;;;;;;-140.05;100.00;61859.38;4905608;29;20694;-62
2021/11/19 03:02:03;;;;;;;19.65;12.90;;;;;;;-140.05;100.00;61859.38;4875928;29;20202;-65
2021/11/19 03:04:36;;;;;;;16.52;12.02;;;;;;;-140.05;100.00;61859.38;4906122;29;20210;-63
2021/11/19 03:07:04;;;;;;;16.00;12.40;;;;;;;-140.05;100.00;61859.38;4890471;29;20270;-62
2021/11/19 03:09:37;;;;;;;18.45;12.35;;;;;;;-140.05;100.00;61859.38;4893800;29;20202;-63
2021/11/19 03:12:07;;;;;;;17.60;11.50;;;;;;;-140.05;100.00;61859.38;4878505;29;20214;-62
2021/11/19 03:14:34;;;;;;;17.05;11.90;;;;;;;-140.05;100.00;61859.38;4878614;29;20566;-62
2021/11/19 03:17:03;;;;;;;15.83;11.60;;;;;;;-140.05;100.00;61859.38;4863413;29;20334;-61
2021/11/19 03:19:32;;;;;;;15.77;10.90;;;;;;;-140.05;100.00;61859.38;4881234;29;20581;-62
2021/11/19 03:21:59;;;;;;;18.53;12.27;;;;;;;-140.05;100.00;61859.38;4875554;29;20281;-63
2021/11/19 03:24:28;;;;;;;19.70;13.10;;;;;;;-140.05;100.00;61859.38;4905905;29;20459;-62
2021/11/19 03:26:56;;;;;;;16.75;11.98;;;;;;;-140.05;100.00;61859.38;4889819;29;20258;-64
2021/11/19 03:29:25;;;;;;;17.25;12.82;;;;;;;-140.05;100.00;61859.38;4890146;29;20221;-62
2021/11/19 03:31:54;;;;;;;18.73;12.73;;;;;;;-140.05;100.00;61859.38;4889553;29;20323;-63
2021/11/19 03:34:23;;;;;;;18.63;13.88;;;;;;;-140.05;100.00;61859.38;4878171;29;20206;-62
2021/11/19 03:36:53;;;;;;;18.87;13.70;;;;;;;-140.05;100.00;61859.38;4881056;29;20206;-63
2021/11/19 03:39:25;;;;;;;24.23;14.47;;;;;;;-140.05;100.00;61859.38;4889831;29;20479;-62
2021/11/19 03:41:56;;;;;;;22.05;15.10;;;;;;;-140.05;100.00;61859.38;4880841;29;21190;-62
2021/11/19 03:44:35;;;;;;;20.65;14.05;;;;;;;-140.05;100.00;61859.38;4865517;29;20711;-63
2021/11/19 03:47:23;;;;;;;20.05;13.63;;;;;;;-140.05;100.00;61859.38;4894925;29;20289;-61
2021/11/19 03:49:52;;;;;;;19.95;13.23;;;;;;;-140.05;100.00;61859.38;4878517;29;20261;-63
2021/11/19 03:52:33;;;;;;;19.52;13.15;;;;;;;-140.05;100.00;61859.38;4888957;29;20203;-61
2021/11/19 03:55:06;;;;;;;17.45;12.90;;;;;;;-140.05;100.00;61859.38;4905767;29;20305;-61
2021/11/19 03:57:33;;;;;;;18.77;13.23;;;;;;;-140.05;100.00;61859.38;4889436;29;20210;-61
2021/11/19 04:00:11;;;;;;;22.57;13.23;;;;;;;-140.05;100.00;61859.38;4889034;29;20198;-60
2021/11/19 04:02:40;;;;;;;18.77;13.40;;;;;;;-140.05;100.00;61859.38;4874784;29;20458;-61
2021/11/19 04:05:08;;;;;;;18.25;12.80;;;;;;;-140.05;100.00;61859.38;4874324;29;20266;-62
2021/11/19 04:07:35;;;;;;;18.00;12.93;;;;;;;-140.05;100.00;61859.38;4862350;29;20264;-62
2021/11/19 04:10:05;;;;;;;21.42;12.45;;;;;;;-140.05;100.00;61859.38;4896207;29;20285;-62
2021/11/19 04:12:33;;;;;;;20.98;13.13;;;;;;;-140.05;100.00;61859.38;4894389;29;20301;-63
2021/11/19 04:15:04;;;;;;;19.67;13.63;;;;;;;-140.05;100.00;61859.38;4893920;29;20760;-63
2021/11/19 04:17:32;;;;;;;18.25;13.93;;;;;;;-140.05;100.00;61859.38;4862419;29;20206;-61
2021/11/19 04:20:00;;;;;;;18.27;13.38;;;;;;;-140.05;100.00;61859.38;4889482;29;20210;-62
2021/11/19 04:22:27;;;;;;;22.70;14.68;;;;;;;-140.05;100.00;61859.38;4889473;29;20226;-61
2021/11/19 04:25:00;;;;;;;21.35;14.00;;;;;;;-140.05;100.00;61859.38;4873688;29;20298;-61
2021/11/19 04:27:32;;;;;;;19.02;13.40;;;;;;;-140.05;100.00;61859.38;4889114;29;20210;-61
2021/11/19 04:30:24;;;;;;;22.25;14.40;;;;;;;-140.05;100.00;61859.38;4877042;29;20234;-61
2021/11/19 04:32:53;;;;;;;21.50;12.70;;;;;;;-140.05;100.00;61859.38;4876174;29;20206;-63
2021/11/19 04:35:21;;;;;;;20.80;15.32;;;;;;;-140.05;100.00;61859.38;4874291;29;20649;-62
2021/11/19 04:37:48;;;;;;;19.33;14.97;;;;;;;-140.05;100.00;61859.38;4864416;29;20697;-60
2021/11/19 04:40:17;;;;;;;19.50;14.25;;;;;;;-140.05;100.00;61859.38;4894969;29;20439;-63
2021/11/19 04:42:46;;;;;;;21.40;15.20;;;;;;;-140.05;100.00;61859.38;4878321;29;20206;-63
2021/11/19 04:45:19;;;;;;;22.05;14.30;;;;;;;-140.05;100.00;61859.38;4889304;29;20203;-62
2021/11/19 04:47:48;;;;;;;22.35;15.18;;;;;;;-140.05;100.00;61859.38;4904678;29;20293;-62
2021/11/19 04:50:17;;;;;;;26.45;15.63;;;;;;;-140.05;100.00;61859.38;4889288;29;20297;-62
2021/11/19 04:52:44;;;;;;;24.05;15.68;;;;;;;-140.05;100.00;61859.38;4905088;29;20214;-63
2021/11/19 04:55:13;;;;;;;20.45;14.80;;;;;;;-140.05;100.00;61859.38;4907458;29;20250;-63
2021/11/19 04:57:41;;;;;;;19.48;14.23;;;;;;;-140.05;100.00;61859.38;4891336;29;20211;-61
2021/11/19 05:00:14;;;;;;;21.80;15.45;;;;;;;-140.05;100.00;61859.38;4907701;29;20206;-62
2021/11/19 05:03:02;;;;;;;19.73;14.07;;;;;;;-140.05;100.00;61859.38;4877662;29;20578;-61
2021/11/19 05:05:33;;;;;;;22.65;14.45;;;;;;;-140.05;100.00;61859.38;4892087;29;20887;-62
2021/11/19 05:08:04;;;;;;;19.70;14.18;;;;;;;-140.05;100.00;61859.38;4877331;29;20640;-62
2021/11/19 05:10:32;;;;;;;19.43;14.07;;;;;;;-140.05;100.00;61859.38;4907791;29;20246;-63
2021/11/19 05:13:00;;;;;;;20.70;12.82;;;;;;;-140.05;100.00;61859.38;4876652;29;20518;-62
2021/11/19 05:15:32;;;;;;;18.73;13.85;;;;;;;-140.05;100.00;61859.38;4892326;29;20710;-62
2021/11/19 05:17:59;;;;;;;18.63;13.80;;;;;;;-140.05;100.00;61859.38;4876872;29;20260;-62
2021/11/19 05:20:26;;;;;;;20.65;14.05;;;;;;;-140.05;100.00;61859.38;4892568;29;20289;-63
2021/11/19 05:22:54;;;;;;;19.02;12.75;;;;;;;-140.05;100.00;61859.38;4892338;29;20213;-63
2021/11/19 05:25:26;;;;;;;21.27;12.60;;;;;;;-140.05;100.00;61859.38;4877423;29;20225;-64
2021/11/19 05:27:54;;;;;;;17.67;12.13;;;;;;;-140.05;100.00;61859.38;4907591;29;20546;-63
2021/11/19 05:30:22;;;;;;;17.45;13.07;;;;;;;-140.05;100.00;61859.38;4892287;29;20211;-62
2021/11/19 05:33:00;;;;;;;17.85;11.73;;;;;;;-140.05;100.00;61859.38;4891959;29;20241;-62
2021/11/19 05:35:27;;;;;;;15.63;11.40;;;;;;;-140.05;100.00;61859.38;4876677;29;20211;-63
2021/11/19 05:37:55;;;;;;;17.88;11.75;;;;;;;-140.05;100.00;61859.38;4907134;29;20208;-67
2021/11/19 05:40:23;;;;;;;17.77;12.00;;;;;;;-140.05;100.00;61859.38;4892237;29;20206;-65
2021/11/19 05:42:52;;;;;;;18.98;11.27;;;;;;;-140.05;100.00;61859.38;4891819;29;20210;-63
2021/11/19 05:45:21;;;;;;;25.77;17.70;;;;;;;-140.05;100.00;61859.38;4892295;29;20269;-66
2021/11/19 05:48:02;;;;;;;30.57;20.93;;;;;;;-140.05;100.00;61859.38;4890506;29;20238;-66
2021/11/19 05:50:36;;;;;;;77.45;50.33;;;;;;;-140.05;100.00;61859.38;4891941;29;20459;-65
2021/11/19 05:53:07;;;;;;;22.05;14.30;;;;;;;-140.05;100.00;61859.38;4891920;29;20214;-66
2021/11/19 05:55:42;;;;;;;28.27;18.27;;;;;;;-140.05;100.00;61859.38;4907972;29;20214;-66
2021/11/19 05:58:09;;;;;;;24.92;16.65;;;;;;;-140.05;100.00;61859.38;4877629;29;20210;-65
2021/11/19 06:00:47;;;;;;;70.10;45.10;;;;;;;-140.05;100.00;61859.38;4891963;29;20207;-68
2021/11/19 06:03:25;;;;;;;123.60;88.47;;;;;;;-140.05;100.00;61859.38;4907445;29;20221;-66
2021/11/19 06:06:08;;;;;;;22.40;16.40;;;;;;;-140.05;100.00;61859.38;4877380;29;20217;-67
2021/11/19 06:09:05;;;;;;;17.45;11.18;;;;;;;-140.05;100.00;61859.38;4891616;29;20218;-65
2021/11/19 06:11:42;;;;;;;18.50;10.90;;;;;;;-140.05;100.00;61859.38;4877304;29;20214;-65
2021/11/19 06:14:18;;;;;;;16.47;11.07;;;;;;;-140.05;100.00;61859.38;4907257;29;20308;-65
2021/11/19 06:16:53;;;;;;;18.70;12.23;;;;;;;-140.05;100.00;61859.38;4877343;29;20455;-64
2021/11/19 06:19:26;;;;;;;19.00;11.87;;;;;;;-140.05;100.00;61859.38;4891811;29;20450;-64
2021/11/19 06:22:07;;;;;;;19.47;12.77;;;;;;;-140.05;100.00;61859.38;4873145;29;20491;-65
2021/11/19 06:24:45;;;;;;;16.92;9.82;;;;;;;-140.05;100.00;61859.38;4889308;29;20518;-67
2021/11/19 06:27:19;;;;;;;17.35;11.98;;;;;;;-140.05;100.00;61859.38;4873197;29;20235;-64
2021/11/19 06:29:47;;;;;;;15.98;11.85;;;;;;;-140.05;100.00;61859.38;4891068;29;20217;-67
2021/11/19 06:32:13;;;;;;;15.00;11.33;;;;;;;-140.05;100.00;61859.38;4893076;29;20240;-65
2021/11/19 06:34:41;;;;;;;21.27;10.63;;;;;;;-140.05;100.00;61859.38;4895036;29;20479;-65
2021/11/19 06:37:08;;;;;;;16.02;10.52;;;;;;;-140.05;100.00;61859.38;4906941;29;20462;-66
2021/11/19 06:40:17;;;;;;;17.80;10.73;;;;;;;-140.05;100.00;61859.38;4873063;29;20226;-66
2021/11/19 06:43:07;;;;;;;14.93;9.93;;;;;;;-140.05;100.00;61859.38;4858323;29;20559;-65
2021/11/19 06:45:49;;;;;;;15.60;10.00;;;;;;;-140.05;100.00;61859.38;4877717;29;20447;-65
2021/11/19 06:48:44;;;;;;;16.58;10.00;;;;;;;-140.05;100.00;61859.38;4876758;29;20310;-64
2021/11/19 06:51:31;;;;;;;20.35;10.35;;;;;;;-140.05;100.00;61859.38;4876679;29;20229;-66
2021/11/19 06:54:21;;;;;;;16.98;10.90;;;;;;;-140.05;100.00;61859.38;4875499;29;20659;-66
2021/11/19 06:57:08;;;;;;;26.85;11.38;;;;;;;-140.05;100.00;61859.38;4876265;29;20189;-64
2021/11/19 06:59:41;;;;;;;20.13;10.60;;;;;;;-140.05;100.00;61859.38;4906528;29;20230;-65
2021/11/19 07:02:10;;;;;;;14.90;10.02;;;;;;;-140.05;100.00;61859.38;4876250;29;20187;-69
2021/11/19 07:04:38;;;;;;;15.23;10.35;;;;;;;-140.05;100.00;61859.38;4875251;29;20301;-66
2021/11/19 07:07:07;;;;;;;19.30;10.63;;;;;;;-140.05;100.00;61859.38;4874405;29;20245;-64
2021/11/19 07:09:38;;;;;;;15.63;11.63;;;;;;;-140.05;100.00;61859.38;4875325;29;20211;-64
2021/11/19 07:12:10;;;;;;;19.20;11.27;;;;;;;-140.05;100.00;61859.38;4905820;29;21040;-64
2021/11/19 07:14:42;;;;;;;21.58;10.10;;;;;;;-140.05;100.00;61859.38;4890462;29;20910;-65
2021/11/19 07:17:11;;;;;;;18.57;11.20;;;;;;;-140.05;100.00;61859.38;4889536;29;20223;-65
2021/11/19 07:19:43;;;;;;;17.20;11.60;;;;;;;-140.05;100.00;61859.38;4906240;29;20451;-65
2021/11/19 07:22:12;;;;;;;18.23;11.48;;;;;;;-140.05;100.00;61859.38;4875673;29;20900;-66
2021/11/19 07:24:42;;;;;;;17.03;10.17;;;;;;;-140.05;100.00;61859.38;4890370;29;20214;-63
2021/11/19 07:27:13;;;;;;;16.47;11.60;;;;;;;-140.05;100.00;61859.38;4889742;29;20550;-64
2021/11/19 07:29:43;;;;;;;19.15;10.98;;;;;;;-140.05;100.00;61859.38;4890421;29;20447;-66
2021/11/19 07:32:29;;;;;;;15.70;10.68;;;;;;;-140.05;100.00;61859.38;4876069;29;20252;-65
2021/11/19 07:35:16;;;;;;;20.13;10.47;;;;;;;-140.05;100.00;61859.38;4890184;29;20210;-65
2021/11/19 07:38:00;;;;;;;19.67;11.50;;;;;;;-140.05;100.00;61859.38;4874563;29;20466;-66
2021/11/19 07:40:54;;;;;;;16.80;11.35;;;;;;;-140.05;100.00;61859.38;4868197;29;20451;-66
2021/11/19 07:43:48;;;;;;;23.03;10.87;;;;;;;-140.05;100.00;61859.38;4874162;29;20242;-66
2021/11/19 07:46:26;;;;;;;19.43;11.10;;;;;;;-140.05;100.00;61859.38;4889223;29;20465;-66
2021/11/19 07:49:02;;;;;;;17.08;10.77;;;;;;;-140.05;100.00;61859.38;4875039;29;20553;-63
2021/11/19 07:51:40;;;;;;;16.03;10.83;;;;;;;-140.05;100.00;61859.38;4890510;29;20753;-67
2021/11/19 07:54:10;;;;;;;16.83;10.97;;;;;;;-140.05;100.00;61859.38;4878386;29;20529;-64
2021/11/19 07:56:38;;;;;;;16.63;11.40;;;;;;;-140.05;100.00;61859.38;4905712;29;20498;-65
2021/11/19 07:59:10;;;;;;;17.37;11.40;;;;;;;-140.05;100.00;61859.38;4890635;29;20455;-66
2021/11/19 08:01:39;;;;;;;19.67;11.20;;;;;;;-140.05;100.00;61859.38;4876019;29;20825;-64
2021/11/19 08:04:06;;;;;;;18.40;10.10;;;;;;;-140.05;100.00;61859.38;4876238;29;20198;-65
2021/11/19 08:06:34;;;;;;;16.37;10.60;;;;;;;-140.05;100.00;61859.38;4874531;29;20458;-65
2021/11/19 08:09:21;;;;;;;28.52;11.68;;;;;;;-140.05;100.00;61859.38;4876129;29;20494;-64
2021/11/19 08:11:57;;;;;;;17.70;10.03;;;;;;;-140.05;100.00;61859.38;4860344;29;20245;-65
2021/11/19 08:14:25;;;;;;;14.73;10.87;;;;;;;-140.05;100.00;61859.38;4890271;29;21406;-66
2021/11/19 08:16:56;;;;;;;17.97;10.47;;;;;;;-140.05;100.00;61859.38;4874131;29;20878;-67
2021/11/19 08:19:44;;;;;;;15.43;10.03;;;;;;;-140.05;100.00;61859.38;4874917;29;20465;-65
2021/11/19 08:22:14;;;;;;;17.25;9.63;;;;;;;-140.05;100.00;61859.38;4875811;29;20465;-63
2021/11/19 08:24:42;;;;;;;14.50;9.90;;;;;;;-140.05;100.00;61859.38;4876036;29;20202;-65
2021/11/19 08:27:17;;;;;;;20.57;11.27;;;;;;;-140.05;100.00;61859.38;4875655;29;20446;-67
2021/11/19 08:29:47;;;;;;;18.05;10.23;;;;;;;-140.05;100.00;61859.38;4878148;29;20518;-68
2021/11/19 08:32:15;;;;;;;17.30;10.60;;;;;;;-140.05;100.00;61859.38;4879379;29;20230;-63
2021/11/19 08:34:42;;;;;;;18.80;11.70;;;;;;;-140.05;100.00;61859.38;4879145;29;20455;-66
2021/11/19 08:37:09;;;;;;;16.70;11.10;;;;;;;-140.05;100.00;61859.38;4878975;29;20453;-67
2021/11/19 08:39:36;;;;;;;17.27;11.13;;;;;;;-140.05;100.00;61859.38;4879373;29;20476;-65
2021/11/19 08:42:08;;;;;;;16.40;10.50;;;;;;;-140.05;100.00;61859.38;4879233;29;20455;-63
2021/11/19 08:44:40;;;;;;;28.10;10.80;;;;;;;-140.05;100.00;61859.38;4879461;29;20450;-67
2021/11/19 08:47:20;;;;;;;18.07;10.47;;;;;;;-140.05;100.00;61859.38;4878668;29;20519;-65
2021/11/19 08:49:49;;;;;;;17.02;10.07;;;;;;;-140.05;100.00;61859.38;4878981;29;20504;-67
2021/11/19 08:52:18;;;;;;;16.73;10.60;;;;;;;-140.05;100.00;61859.38;4878283;29;20234;-63
2021/11/19 08:54:46;;;;;;;16.63;10.30;;;;;;;-140.05;100.00;61859.38;4879043;29;20210;-64
2021/11/19 08:57:25;;;;;;;19.13;10.27;;;;;;;-140.05;100.00;61859.38;4878631;29;20438;-67
2021/11/19 08:59:54;;;;;;;16.40;10.17;;;;;;;-140.05;100.00;61859.38;4879004;29;20214;-66
2021/11/19 09:02:24;;;;;;;19.83;10.40;;;;;;;-140.05;100.00;61859.38;4879182;29;20495;-65
2021/11/19 09:05:02;;;;;;;23.17;11.33;;;;;;;-140.05;100.00;61859.38;4879309;29;20214;-64
2021/11/19 09:07:32;;;;;;;15.45;10.23;;;;;;;-140.05;100.00;61859.38;4877874;29;20475;-63
2021/11/19 09:10:04;;;;;;;18.45;12.52;;;;;;;-140.05;100.00;61859.38;4878271;29;20266;-66
2021/11/19 09:12:31;;;;;;;25.37;11.00;;;;;;;-140.05;100.00;61859.38;4877944;29;20222;-68
2021/11/19 09:14:58;;;;;;;20.10;11.70;;;;;;;-140.05;100.00;61859.38;4878298;29;20465;-65
2021/11/19 09:17:30;;;;;;;17.73;10.93;;;;;;;-140.05;100.00;61859.38;4878158;29;20436;-64
2021/11/19 09:20:05;;;;;;;18.57;11.87;;;;;;;-140.05;100.00;61859.38;4878138;29;20451;-65
2021/11/19 09:22:38;;;;;;;17.97;10.33;;;;;;;-140.05;100.00;61859.38;4877874;29;20454;-66
2021/11/19 09:25:13;;;;;;;17.70;10.97;;;;;;;-140.05;100.00;61859.38;4878221;29;20447;-63
2021/11/19 09:27:40;;;;;;;14.33;9.97;;;;;;;-140.05;100.00;61859.38;4877831;29;20526;-65
2021/11/19 09:30:15;;;;;;;15.87;10.97;;;;;;;-140.05;100.00;61859.38;4878108;29;20478;-64
2021/11/19 09:32:50;;;;;;;17.80;10.77;;;;;;;-140.05;100.00;61859.38;4877337;29;20490;-65
2021/11/19 09:35:19;;;;;;;13.57;9.53;;;;;;;-140.05;100.00;61859.38;4878096;29;20434;-64
2021/11/19 09:37:48;;;;;;;13.60;9.13;;;;;;;-140.05;100.00;61859.38;4877144;29;20453;-63
2021/11/19 09:40:19;;;;;;;13.90;9.47;;;;;;;-140.05;100.00;61859.38;4877201;29;20458;-62
2021/11/19 09:42:56;;;;;;;13.83;9.33;;;;;;;-140.05;100.00;61859.38;4877997;29;20795;-64
2021/11/19 09:45:36;;;;;;;15.90;8.50;;;;;;;-140.05;100.00;61859.38;4877751;29;20451;-65
2021/11/19 09:48:23;;;;;;;14.63;8.97;;;;;;;-140.05;100.00;61859.38;4877193;29;20461;-65
2021/11/19 09:51:17;;;;;;;17.23;9.60;;;;;;;-140.05;100.00;61859.38;4878045;29;20966;-66
2021/11/19 09:53:58;;;;;;;18.50;9.03;;;;;;;-140.05;100.00;61859.38;4877354;29;20443;-64
2021/11/19 09:56:46;;;;;;;13.93;8.57;;;;;;;-140.05;100.00;61859.38;4877615;29;20447;-65
2021/11/19 09:59:25;;;;;;;20.83;9.30;;;;;;;-140.05;100.00;61859.38;4877560;29;20985;-66
2021/11/19 10:02:12;;;;;;;13.17;7.90;;;;;;;-140.05;100.00;61859.38;4891491;29;20478;-68
2021/11/19 10:05:07;;;;;;;14.30;7.77;;;;;;;-140.05;100.00;61859.38;4877356;29;20455;-63
2021/11/19 10:08:14;;;;;;;10.60;6.93;;;;;;;-140.05;100.00;61859.38;4877105;29;20570;-63
2021/11/19 10:10:56;;;;;;;12.50;8.27;;;;;;;-140.05;100.00;61859.38;4877669;29;20458;-65
2021/11/19 10:13:45;;;;;;;15.40;9.40;;;;;;;-140.05;100.00;61859.38;4876982;29;20490;-63
2021/11/19 10:16:17;;;;;;;13.53;8.70;;;;;;;-140.05;100.00;61859.38;4877132;29;20475;-65
2021/11/19 10:18:57;;;;;;;15.50;9.00;;;;;;;-140.05;100.00;61859.38;4877022;29;20459;-63
2021/11/19 10:21:32;;;;;;;15.97;8.57;;;;;;;-140.05;100.00;61859.38;4890894;29;20895;-64
2021/11/19 10:24:11;;;;;;;14.97;8.67;;;;;;;-140.05;100.00;61859.38;4877260;29;20819;-63
2021/11/19 10:26:48;;;;;;;15.63;9.33;;;;;;;-140.05;100.00;61859.38;4876560;29;20538;-63
2021/11/19 10:29:17;;;;;;;11.27;8.10;;;;;;;-140.05;100.00;61859.38;4876915;29;20500;-67
2021/11/19 10:31:45;;;;;;;13.47;8.57;;;;;;;-140.05;100.00;61859.38;4876646;29;20439;-64
2021/11/19 10:34:38;;;;;;;12.73;8.57;;;;;;;-140.05;100.00;61859.38;4876677;29;20451;-67
2021/11/19 10:37:44;;;;;;;15.70;8.63;;;;;;;-140.05;100.00;61859.38;4876766;29;20826;-67
2021/11/19 10:40:49;;;;;;;12.97;7.60;;;;;;;-140.05;100.00;61859.38;4877011;29;20478;-64
2021/11/19 10:43:57;;;;;;;11.67;8.00;;;;;;;-140.05;100.00;61859.38;4905927;29;20465;-66
2021/11/19 10:46:39;;;;;;;15.40;7.63;;;;;;;-140.05;100.00;61859.38;4875354;29;20455;-66
2021/11/19 10:49:43;;;;;;;24.70;9.17;;;;;;;-140.05;100.00;61859.38;4877126;29;20451;-66
2021/11/19 10:52:38;;;;;;;9.90;7.40;;;;;;;-140.05;100.00;61859.38;4876397;29;20553;-64
2021/11/19 10:55:43;;;;;;;11.47;7.40;;;;;;;-140.05;100.00;61859.38;4891311;29;20475;-65
2021/11/19 10:59:04;;;;;;;12.70;8.53;;;;;;;-140.05;100.00;61859.38;4876109;29;20534;-66
2021/11/19 11:02:02;;;;;;;10.87;6.87;;;;;;;-140.05;100.00;61859.38;4873690;29;20454;-65
2021/11/19 11:04:56;;;;;;;12.40;7.27;;;;;;;-140.05;100.00;61859.38;4876790;29;20493;-63
2021/11/19 11:07:33;;;;;;;15.60;11.07;;;;;;;-140.05;100.00;61859.38;4876136;29;20459;-63
2021/11/19 11:10:11;;;;;;;14.23;6.93;;;;;;;-140.05;100.00;61859.38;4876524;29;20527;-63
2021/11/19 11:12:44;;;;;;;14.00;7.13;;;;;;;-140.05;100.00;61859.38;4875862;29;20494;-68
2021/11/19 11:15:33;;;;;;;8.67;6.43;;;;;;;-140.05;100.00;61859.38;4876211;29;20961;-64
2021/11/19 11:18:03;;;;;;;11.93;6.83;;;;;;;-140.05;100.00;61859.38;4876300;29;20462;-66
2021/11/19 11:20:35;;;;;;;8.43;6.37;;;;;;;-140.05;100.00;61859.38;4876539;29;20968;-65
2021/11/19 11:23:39;;;;;;;14.20;7.27;;;;;;;-140.05;100.00;61859.38;4876178;29;20451;-66
2021/11/19 11:26:06;;;;;;;8.70;5.90;;;;;;;-140.05;100.00;61859.38;4876489;29;20449;-69
2021/11/19 11:29:08;;;;;;;14.10;7.83;;;;;;;-140.05;100.00;61859.38;4876278;29;20493;-63
2021/11/19 11:32:13;;;;;;;8.10;5.83;;;;;;;-140.05;100.00;61859.38;4875814;29;20844;-72